createdAt,value
2019-02-10T05:51:31.033Z,4.75
2019-02-10T05:53:59.634Z,7.05
2019-02-10T05:56:28.300Z,5.20
2019-02-10T05:58:57.287Z,3.70
2019-02-10T06:02:00.974Z,2.98
2019-02-10T06:04:30.366Z,3.85
2019-02-10T06:07:01.803Z,3.12
2019-02-10T06:09:30.513Z,1.40
2019-02-10T06:11:59.298Z,3.27
2019-02-10T06:14:27.996Z,4.03
2019-02-10T06:16:56.606Z,2.83
2019-02-10T06:19:25.419Z,2.12
2019-02-10T06:21:54.063Z,2.17
2019-02-10T06:24:22.758Z,3.02
2019-02-10T06:26:51.513Z,1.82
2019-02-10T06:29:20.188Z,2.20
2019-02-10T06:31:48.824Z,1.55
2019-02-10T06:34:17.551Z,1.45
2019-02-10T06:36:46.230Z,2.33
2019-02-10T06:39:15.168Z,2.17
2019-02-10T06:41:43.893Z,1.27
2019-02-10T06:44:12.673Z,2.30
2019-02-10T06:46:41.343Z,2.10
2019-02-10T06:49:10.193Z,1.25
2019-02-10T06:51:39.058Z,1.72
2019-02-10T06:54:07.799Z,1.47
2019-02-10T06:56:36.593Z,1.22
2019-02-10T06:59:06.733Z,1.25
2019-02-10T07:01:37.013Z,2.72
2019-02-10T07:04:09.103Z,2.15
2019-02-10T07:06:37.743Z,1.90
2019-02-10T07:09:07.998Z,3.52
2019-02-10T07:11:36.843Z,3.77
2019-02-10T07:14:06.317Z,1.77
2019-02-10T07:16:44.756Z,2.02
2019-02-10T07:19:50.306Z,1.20
2019-02-10T07:22:43.063Z,1.02
2019-02-10T07:25:17.587Z,1.32
2019-02-10T07:27:49.236Z,2.30
2019-02-10T07:30:21.201Z,1.90
2019-02-10T07:32:52.478Z,2.12
2019-02-10T07:35:39.618Z,1.87
2019-02-10T07:38:30.048Z,2.62
2019-02-10T07:41:24.540Z,1.67
2019-02-10T07:44:02.458Z,1.45
2019-02-10T07:47:00.023Z,2.20
2019-02-10T07:49:52.653Z,1.65
2019-02-10T07:52:30.307Z,1.60
2019-02-10T07:55:02.397Z,2.33
2019-02-10T07:57:37.163Z,2.45
2019-02-10T08:00:14.689Z,2.00
2019-02-10T08:02:51.993Z,2.25
2019-02-10T08:05:26.452Z,2.92
2019-02-10T08:08:04.121Z,4.10
2019-02-10T08:10:37.550Z,2.45
2019-02-10T08:13:14.873Z,2.80
2019-02-10T08:16:01.849Z,2.25
2019-02-10T08:18:42.706Z,2.10
2019-02-10T08:21:30.143Z,2.67
2019-02-10T08:24:10.821Z,2.98
2019-02-10T08:26:48.608Z,2.25
2019-02-10T08:29:29.458Z,2.33
2019-02-10T08:32:13.431Z,2.30
2019-02-10T08:34:51.438Z,1.70
2019-02-10T08:37:41.108Z,4.08
2019-02-10T08:40:33.987Z,1.82
2019-02-10T08:43:17.909Z,2.47
2019-02-10T08:46:06.447Z,2.05
2019-02-10T08:49:11.603Z,1.77
2019-02-10T08:52:15.619Z,1.45
2019-02-10T08:54:44.611Z,0.72
2019-02-10T08:57:13.487Z,1.37
2019-02-10T08:59:42.382Z,0.85
2019-02-10T09:02:11.264Z,0.60
2019-02-10T09:04:40.163Z,0.50
2019-02-10T09:07:08.949Z,0.72
2019-02-10T09:09:37.934Z,0.53
2019-02-10T09:12:06.839Z,0.65
2019-02-10T09:14:35.723Z,0.70
2019-02-10T09:17:04.612Z,0.68
2019-02-10T09:19:33.393Z,0.78
2019-02-10T09:22:02.499Z,0.72
2019-02-10T09:24:31.435Z,0.55
2019-02-10T09:27:00.057Z,0.60
2019-02-10T09:29:28.829Z,0.85
2019-02-10T09:31:57.608Z,0.90
2019-02-10T09:34:27.344Z,1.25
2019-02-10T09:36:56.203Z,1.35
2019-02-10T09:39:24.923Z,1.12
2019-02-10T09:41:53.593Z,1.05
2019-02-10T09:44:22.191Z,1.32
2019-02-10T09:46:50.893Z,1.10
2019-02-10T09:49:19.593Z,2.58
2019-02-10T09:51:48.283Z,1.45
2019-02-10T09:54:17.102Z,1.57
2019-02-10T09:56:45.773Z,2.83
2019-02-10T09:59:14.374Z,3.08
2019-02-10T10:01:43.203Z,2.08
2019-02-10T10:04:11.803Z,1.25
2019-02-10T10:06:40.470Z,2.30
2019-02-10T10:09:09.192Z,2.87
2019-02-10T10:11:37.903Z,1.42
2019-02-10T10:14:06.558Z,2.10
2019-02-10T10:16:35.387Z,4.65
2019-02-10T10:19:04.113Z,3.20
2019-02-10T10:21:32.908Z,5.22
2019-02-10T10:24:01.789Z,5.65
2019-02-10T10:26:30.682Z,4.10
2019-02-10T10:28:59.578Z,7.50
2019-02-10T10:31:29.698Z,5.25
2019-02-10T10:33:58.608Z,5.97
2019-02-10T10:36:27.595Z,4.12
2019-02-10T10:38:56.471Z,5.67
2019-02-10T10:41:25.147Z,6.58
2019-02-10T10:43:53.833Z,6.17
2019-02-10T10:46:22.673Z,3.67
2019-02-10T10:48:51.283Z,4.37
2019-02-10T10:51:19.984Z,2.80
2019-02-10T10:53:48.823Z,3.45
2019-02-10T10:56:17.515Z,2.92
2019-02-10T10:58:47.238Z,3.40
2019-02-10T11:01:16.013Z,6.08
2019-02-10T11:03:44.714Z,5.95
2019-02-10T11:06:13.334Z,3.65
2019-02-10T11:08:42.168Z,3.22
2019-02-10T11:11:10.848Z,4.15
2019-02-10T11:13:39.526Z,2.22
2019-02-10T11:16:08.388Z,6.20
2019-02-10T11:18:37.166Z,2.27
2019-02-10T11:21:06.073Z,3.22
2019-02-10T11:23:35.066Z,2.80
2019-02-10T11:26:03.947Z,3.15
2019-02-10T11:28:32.725Z,4.00
2019-02-10T11:31:01.646Z,3.02
2019-02-10T11:33:30.420Z,3.02
2019-02-10T11:35:59.417Z,3.00
2019-02-10T11:38:28.526Z,2.90
2019-02-10T11:40:57.399Z,2.20
2019-02-10T11:43:26.288Z,2.98
2019-02-10T11:45:55.180Z,2.58
2019-02-10T11:48:24.067Z,1.55
2019-02-10T11:50:52.854Z,3.00
2019-02-10T11:53:21.842Z,1.32
2019-02-10T11:55:50.742Z,0.60
2019-02-10T11:58:19.638Z,1.35
2019-02-10T12:00:48.942Z,0.90
2019-02-10T12:03:17.723Z,1.57
2019-02-10T12:05:46.513Z,1.55
2019-02-10T12:08:15.502Z,1.67
2019-02-10T12:10:44.293Z,2.58
2019-02-10T12:13:12.968Z,1.52
2019-02-10T12:15:41.958Z,2.02
2019-02-10T12:18:10.652Z,1.55
2019-02-10T12:20:39.438Z,2.85
2019-02-10T12:23:08.319Z,1.40
2019-02-10T12:25:37.347Z,1.30
2019-02-10T12:28:06.223Z,1.30
2019-02-10T12:30:35.308Z,4.45
2019-02-10T12:33:04.318Z,1.98
2019-02-10T12:35:33.303Z,1.10
2019-02-10T12:38:02.233Z,1.30
2019-02-10T12:40:31.074Z,1.45
2019-02-10T12:42:59.866Z,1.22
2019-02-10T12:45:28.893Z,1.07
2019-02-10T12:47:57.750Z,1.60
2019-02-10T12:50:27.770Z,2.75
2019-02-10T12:52:56.860Z,2.45
2019-02-10T12:55:27.296Z,2.22
2019-02-10T12:57:56.607Z,0.90
2019-02-10T13:00:25.574Z,0.90
2019-02-10T13:02:54.877Z,0.95
2019-02-10T13:05:23.665Z,1.65
2019-02-10T13:07:52.865Z,1.27
2019-02-10T13:10:21.645Z,0.90
2019-02-10T13:12:50.239Z,1.42
2019-02-10T13:15:19.024Z,1.10
2019-02-10T13:17:47.790Z,1.30
2019-02-10T13:20:16.450Z,1.40
2019-02-10T13:22:51.930Z,1.27
2019-02-10T13:25:20.681Z,1.77
2019-02-10T13:27:49.819Z,2.35
2019-02-10T13:30:19.343Z,1.12
2019-02-10T13:32:48.068Z,3.02
2019-02-10T13:35:16.910Z,1.37
2019-02-10T13:37:46.185Z,2.12
2019-02-10T13:40:17.274Z,0.80
2019-02-10T13:42:46.080Z,0.60
2019-02-10T13:45:14.839Z,1.57
2019-02-10T13:47:43.518Z,1.42
2019-02-10T13:50:15.155Z,1.55
2019-02-10T13:52:44.165Z,2.83
2019-02-10T13:55:14.247Z,1.67
2019-02-10T13:57:42.915Z,1.20
2019-02-10T14:00:17.746Z,1.27
2019-02-10T14:02:46.435Z,0.80
2019-02-10T14:05:15.136Z,2.80
2019-02-10T14:07:45.683Z,0.80
2019-02-10T14:10:15.749Z,1.42
2019-02-10T14:12:44.688Z,1.07
2019-02-10T14:15:18.710Z,1.52
2019-02-10T14:17:47.401Z,1.27
2019-02-10T14:20:17.400Z,1.10
2019-02-10T14:22:46.307Z,1.35
2019-02-10T14:25:14.960Z,1.22
2019-02-10T14:27:43.948Z,1.50
2019-02-10T14:30:21.210Z,1.47
2019-02-10T14:32:49.828Z,1.82
2019-02-10T14:35:18.450Z,3.72
2019-02-10T14:37:47.197Z,2.30
2019-02-10T14:40:15.795Z,1.80
2019-02-10T14:42:44.605Z,2.67
2019-02-10T14:45:15.480Z,2.30
2019-02-10T14:47:44.145Z,2.65
2019-02-10T14:50:15.318Z,1.47
2019-02-10T14:52:44.215Z,6.45
2019-02-10T14:55:12.895Z,1.70
2019-02-10T14:57:41.585Z,2.00
2019-02-10T15:00:12.710Z,1.25
2019-02-10T15:02:41.385Z,0.98
2019-02-10T15:05:10.085Z,1.10
2019-02-10T15:07:38.755Z,0.82
2019-02-10T15:10:12.950Z,0.80
2019-02-10T15:12:41.596Z,0.90
2019-02-10T15:15:11.514Z,0.80
2019-02-10T15:17:40.160Z,1.10
2019-02-10T15:20:10.460Z,0.60
2019-02-10T15:22:39.219Z,0.80
2019-02-10T15:25:13.053Z,0.68
2019-02-10T15:27:41.750Z,1.12
2019-02-10T15:30:16.616Z,1.45
2019-02-10T15:32:45.261Z,0.80
2019-02-10T15:35:15.016Z,0.80
2019-02-10T15:37:43.830Z,0.50
2019-02-10T15:40:14.065Z,0.80
2019-02-10T15:42:42.755Z,1.00
2019-02-10T15:45:13.585Z,0.72
2019-02-10T15:47:42.158Z,0.80
2019-02-10T15:50:13.108Z,1.17
2019-02-10T15:52:41.835Z,0.85
2019-02-10T15:55:14.296Z,1.30
2019-02-10T15:57:44.190Z,0.70
2019-02-10T16:00:16.444Z,0.80
2019-02-10T16:02:45.135Z,1.12
2019-02-10T16:05:14.745Z,0.62
2019-02-10T16:07:45.145Z,0.60
2019-02-10T16:10:13.979Z,0.95
2019-02-10T16:12:42.749Z,0.70
2019-02-10T16:15:12.560Z,1.40
2019-02-10T16:17:41.225Z,0.68
2019-02-10T16:20:14.427Z,0.70
2019-02-10T16:22:43.221Z,0.80
2019-02-10T16:25:11.915Z,1.05
2019-02-10T16:27:40.600Z,2.65
2019-02-10T16:30:17.329Z,1.02
2019-02-10T16:32:49.962Z,1.77
2019-02-10T16:35:16.335Z,1.25
2019-02-10T16:37:45.198Z,0.88
2019-02-10T16:40:19.355Z,0.90
2019-02-10T16:42:48.025Z,1.22
2019-02-10T16:45:16.767Z,1.82
2019-02-10T16:47:45.370Z,2.17
2019-02-10T16:50:15.375Z,1.32
2019-02-10T16:52:44.027Z,2.62
2019-02-10T16:55:17.346Z,1.65
2019-02-10T16:57:46.048Z,0.80
2019-02-10T17:00:15.956Z,1.00
2019-02-10T17:02:44.645Z,1.60
2019-02-10T17:05:13.312Z,1.32
2019-02-10T17:07:42.304Z,0.90
2019-02-10T17:10:16.685Z,1.25
2019-02-10T17:12:45.369Z,3.45
2019-02-10T17:15:14.231Z,0.93
2019-02-10T17:17:42.899Z,1.30
2019-02-10T17:20:15.773Z,0.90
2019-02-10T17:22:44.480Z,1.20
2019-02-10T17:25:18.745Z,0.90
2019-02-10T17:27:47.429Z,1.00
2019-02-10T17:30:16.499Z,1.37
2019-02-10T17:32:45.180Z,0.70
2019-02-10T17:35:14.775Z,0.75
2019-02-10T17:37:43.522Z,0.70
2019-02-10T17:40:32.132Z,0.70
2019-02-10T17:43:00.934Z,0.57
2019-02-10T17:45:29.665Z,3.30
2019-02-10T17:47:58.425Z,0.70
2019-02-10T17:50:27.145Z,1.27
2019-02-10T17:52:55.818Z,0.85
2019-02-10T17:55:25.415Z,1.00
2019-02-10T17:57:54.218Z,0.62
2019-02-10T18:00:24.367Z,0.60
2019-02-10T18:02:53.048Z,1.12
2019-02-10T18:05:21.939Z,1.15
2019-02-10T18:07:50.610Z,1.45
2019-02-10T18:10:19.316Z,0.82
2019-02-10T18:12:48.118Z,1.00
2019-02-10T18:15:21.062Z,0.70
2019-02-10T18:18:07.672Z,0.68
2019-02-10T18:20:37.840Z,0.80
2019-02-10T18:23:23.600Z,1.10
2019-02-10T18:25:56.855Z,1.05
2019-02-10T18:28:32.715Z,1.20
2019-02-10T18:31:15.134Z,1.12
2019-02-10T18:33:51.400Z,1.10
2019-02-10T18:36:38.034Z,0.70
2019-02-10T18:39:08.626Z,1.65
2019-02-10T18:41:51.205Z,0.80
2019-02-10T18:44:33.145Z,1.47
2019-02-10T18:47:03.441Z,0.80
2019-02-10T18:49:33.698Z,1.07
2019-02-10T18:52:16.175Z,0.82
2019-02-10T18:54:52.528Z,1.00
2019-02-10T18:57:39.508Z,1.15
2019-02-10T19:00:18.624Z,1.30
2019-02-10T19:03:01.054Z,0.93
2019-02-10T19:05:43.410Z,1.00
2019-02-10T19:08:19.851Z,0.93
2019-02-10T19:10:50.100Z,0.85
2019-02-10T19:13:36.828Z,1.02
2019-02-10T19:16:15.932Z,0.75
2019-02-10T19:18:48.800Z,0.80
2019-02-10T19:21:34.439Z,1.12
2019-02-10T19:24:11.175Z,0.85
2019-02-10T19:26:41.440Z,0.80
2019-02-10T19:29:14.755Z,1.30
2019-02-10T19:31:47.960Z,1.32
2019-02-10T19:34:30.520Z,2.12
2019-02-10T19:37:09.323Z,3.27
2019-02-10T19:39:39.725Z,1.17
2019-02-10T19:42:12.766Z,1.10
2019-02-10T19:44:59.280Z,1.65
2019-02-10T19:47:29.565Z,1.47
2019-02-10T19:50:16.415Z,3.00
2019-02-10T19:52:49.650Z,1.15
2019-02-10T19:55:19.894Z,2.27
2019-02-10T19:57:50.129Z,1.85
2019-02-10T20:00:29.890Z,1.45
2019-02-10T20:03:00.425Z,1.00
2019-02-10T20:05:30.675Z,1.75
2019-02-10T20:08:01.060Z,1.05
2019-02-10T20:10:31.555Z,2.47
2019-02-10T20:13:16.945Z,2.70
2019-02-10T20:15:50.191Z,2.77
2019-02-10T20:18:23.505Z,1.07
2019-02-10T20:20:53.751Z,1.07
2019-02-10T20:23:33.795Z,0.53
2019-02-10T20:26:06.790Z,1.65
2019-02-10T20:28:49.200Z,1.57
2019-02-10T20:31:19.423Z,2.47
2019-02-10T20:33:52.734Z,2.05
2019-02-10T20:36:22.969Z,1.27
2019-02-10T20:39:08.376Z,1.47
2019-02-10T20:41:38.635Z,2.47
2019-02-10T20:44:20.969Z,2.77
2019-02-10T20:46:53.680Z,3.50
2019-02-10T20:49:23.915Z,2.12
2019-02-10T20:52:00.211Z,0.78
2019-02-10T20:54:36.585Z,1.75
2019-02-10T20:57:15.805Z,2.05
2019-02-10T20:59:46.018Z,3.62
2019-02-10T21:02:28.445Z,4.65
2019-02-10T21:04:58.902Z,3.20
2019-02-10T21:07:31.725Z,4.28
2019-02-10T21:10:04.940Z,1.57
2019-02-10T21:12:50.538Z,2.80
2019-02-10T21:15:37.125Z,1.72
2019-02-10T21:18:23.551Z,2.70
2019-02-10T21:20:56.405Z,1.55
2019-02-10T21:23:26.745Z,5.08
2019-02-10T21:25:56.964Z,2.92
2019-02-10T21:28:27.225Z,5.33
2019-02-10T21:31:09.546Z,3.42
2019-02-10T21:33:42.697Z,2.00
2019-02-10T21:36:15.866Z,3.75
2019-02-10T21:38:46.154Z,2.85
2019-02-10T21:41:25.660Z,3.12
2019-02-10T21:44:12.660Z,2.65
2019-02-10T21:46:43.093Z,4.25
2019-02-10T21:49:11.711Z,3.58
2019-02-10T21:51:40.380Z,5.42
2019-02-10T21:54:09.179Z,5.60
2019-02-10T21:56:37.850Z,4.65
2019-02-10T21:59:06.586Z,4.80
2019-02-10T22:01:35.542Z,1.72
2019-02-10T22:04:04.200Z,1.37
2019-02-10T22:06:33.020Z,3.42
2019-02-10T22:09:02.094Z,5.37
2019-02-10T22:11:30.700Z,2.20
2019-02-10T22:13:59.361Z,1.40
2019-02-10T22:16:28.194Z,4.05
2019-02-10T22:18:56.985Z,4.40
2019-02-10T22:21:25.680Z,5.37
2019-02-10T22:23:54.370Z,0.95
2019-02-10T22:26:23.345Z,2.58
2019-02-10T22:28:52.040Z,2.83
2019-02-10T22:31:20.785Z,5.28
2019-02-10T22:33:51.616Z,3.17
2019-02-10T22:36:19.821Z,4.30
2019-02-10T22:38:48.777Z,3.70
2019-02-10T22:41:17.445Z,6.25
2019-02-10T22:43:46.137Z,4.17
2019-02-10T22:46:15.106Z,4.25
2019-02-10T22:48:43.777Z,1.75
2019-02-10T22:51:12.456Z,3.55
2019-02-10T22:53:41.291Z,5.92
2019-02-10T22:56:09.976Z,0.90
2019-02-10T22:58:38.657Z,2.55
2019-02-10T23:01:07.576Z,2.50
2019-02-10T23:03:36.275Z,1.37
2019-02-10T23:06:04.987Z,4.03
2019-02-10T23:08:33.844Z,3.33
2019-02-10T23:11:02.521Z,3.17
2019-02-10T23:13:31.263Z,4.65
2019-02-10T23:16:00.366Z,2.35
2019-02-10T23:18:29.277Z,1.37
2019-02-10T23:20:58.149Z,3.27
2019-02-10T23:23:27.030Z,2.08
2019-02-10T23:25:55.821Z,6.30
2019-02-10T23:28:24.611Z,1.05
2019-02-10T23:30:53.711Z,2.40
2019-02-10T23:33:22.491Z,2.10
2019-02-10T23:35:51.402Z,2.77
2019-02-10T23:38:20.281Z,1.85
2019-02-10T23:40:49.171Z,2.02
2019-02-10T23:43:18.081Z,5.50
2019-02-10T23:45:47.084Z,2.45
2019-02-10T23:48:15.958Z,7.62
2019-02-10T23:50:44.836Z,5.78
2019-02-10T23:53:13.717Z,3.30
2019-02-10T23:55:42.515Z,4.42
2019-02-10T23:58:11.400Z,7.22
